createdAt,value
2019-05-06T00:01:14.954Z,10.67
2019-05-06T00:03:44.920Z,10.20
2019-05-06T00:06:14.597Z,5.30
2019-05-06T00:08:44.315Z,8.80
2019-05-06T00:11:14.329Z,7.37
2019-05-06T00:13:44.536Z,5.80
2019-05-06T00:16:14.564Z,5.53
2019-05-06T00:18:44.904Z,6.67
2019-05-06T00:21:14.860Z,5.90
2019-05-06T00:23:48.634Z,6.87
2019-05-06T00:26:29.540Z,6.90
2019-05-06T00:29:04.454Z,6.93
2019-05-06T00:31:34.663Z,7.83
2019-05-06T00:34:04.476Z,9.47
2019-05-06T00:36:34.560Z,8.67
2019-05-06T00:39:07.341Z,7.67
2019-05-06T00:41:36.950Z,11.20
2019-05-06T00:44:06.516Z,6.87
2019-05-06T00:46:36.019Z,8.93
2019-05-06T00:49:06.009Z,7.87
2019-05-06T00:51:35.542Z,11.80
2019-05-06T00:54:18.710Z,10.03
2019-05-06T00:56:48.250Z,9.10
2019-05-06T00:59:18.042Z,8.33
2019-05-06T01:01:47.572Z,7.87
2019-05-06T01:04:17.411Z,8.93
2019-05-06T01:06:47.001Z,9.87
2019-05-06T01:09:23.396Z,8.23
2019-05-06T01:11:54.657Z,10.10
2019-05-06T01:14:25.823Z,5.77
2019-05-06T01:16:55.374Z,9.50
2019-05-06T01:19:24.905Z,6.83
2019-05-06T01:21:55.677Z,10.97
2019-05-06T01:24:25.175Z,9.10
2019-05-06T01:26:54.733Z,8.80
2019-05-06T01:29:24.280Z,7.90
2019-05-06T01:31:54.517Z,7.20
2019-05-06T01:34:24.629Z,9.80
2019-05-06T01:36:54.736Z,8.70
2019-05-06T01:39:29.929Z,11.80
2019-05-06T01:42:01.099Z,11.30
2019-05-06T01:44:30.905Z,4.90
2019-05-06T01:47:00.484Z,7.73
2019-05-06T01:49:31.040Z,8.17
2019-05-06T01:52:00.567Z,10.07
2019-05-06T01:54:30.121Z,7.57
2019-05-06T01:56:59.662Z,8.17
2019-05-06T01:59:29.300Z,8.60
2019-05-06T02:02:01.209Z,7.20
2019-05-06T02:04:30.424Z,10.57
2019-05-06T02:06:59.964Z,13.40
2019-05-06T02:09:29.508Z,8.57
2019-05-06T02:11:59.151Z,7.87
2019-05-06T02:14:28.679Z,8.97
2019-05-06T02:16:58.259Z,11.70
2019-05-06T02:19:27.945Z,7.27
2019-05-06T02:22:01.540Z,8.17
2019-05-06T02:24:33.782Z,9.70
2019-05-06T02:27:04.474Z,9.53
2019-05-06T02:29:50.894Z,6.40
2019-05-06T02:32:36.861Z,7.90
2019-05-06T02:35:14.997Z,12.07
2019-05-06T02:37:46.648Z,8.53
2019-05-06T02:40:25.766Z,7.50
2019-05-06T02:42:55.616Z,11.00
2019-05-06T02:45:25.596Z,9.57
2019-05-06T02:48:14.002Z,10.23
2019-05-06T02:50:43.478Z,9.27
2019-05-06T02:53:13.784Z,9.43
2019-05-06T02:55:43.317Z,11.90
2019-05-06T02:58:14.835Z,7.47
2019-05-06T03:00:44.184Z,10.40
2019-05-06T03:03:14.323Z,9.93
2019-05-06T03:05:44.275Z,10.00
2019-05-06T03:08:13.962Z,10.50
2019-05-06T03:10:44.525Z,9.60
2019-05-06T03:13:14.618Z,11.30
2019-05-06T03:15:44.231Z,12.67
2019-05-06T03:18:15.100Z,12.40
2019-05-06T03:20:54.537Z,10.23
2019-05-06T03:23:25.727Z,11.87
2019-05-06T03:25:55.323Z,12.13
2019-05-06T03:28:25.003Z,14.93
2019-05-06T03:30:56.781Z,11.93
2019-05-06T03:33:47.685Z,10.97
2019-05-06T03:36:06.958Z,10.90
2019-05-06T03:38:28.400Z,9.90
2019-05-06T03:40:57.965Z,10.10
2019-05-06T03:43:27.488Z,9.67
2019-05-06T03:45:59.162Z,10.50
2019-05-06T03:48:33.181Z,9.87
2019-05-06T03:51:04.023Z,8.80
2019-05-06T03:53:35.725Z,10.80
2019-05-06T03:56:05.980Z,10.80
2019-05-06T03:58:38.157Z,10.00
2019-05-06T04:01:07.764Z,13.87
2019-05-06T04:03:46.889Z,11.60
2019-05-06T04:06:08.915Z,11.33
2019-05-06T04:08:38.930Z,12.83
2019-05-06T04:11:10.343Z,9.53
2019-05-06T04:13:40.110Z,10.80
2019-05-06T04:16:17.377Z,12.23
2019-05-06T04:18:53.820Z,13.27
2019-05-06T04:21:24.827Z,11.17
2019-05-06T04:24:05.041Z,11.97
2019-05-06T04:26:34.900Z,12.53
2019-05-06T04:29:04.831Z,11.83
2019-05-06T04:31:34.965Z,12.43
2019-05-06T04:34:13.470Z,12.60
2019-05-06T04:36:36.338Z,15.93
2019-05-06T04:39:07.196Z,11.20
2019-05-06T04:41:37.097Z,13.83
2019-05-06T04:44:06.684Z,13.67
2019-05-06T04:46:36.268Z,15.80
2019-05-06T04:49:10.352Z,14.93
2019-05-06T04:51:37.470Z,13.80
2019-05-06T04:54:07.087Z,16.23
2019-05-06T04:56:36.618Z,16.73
2019-05-06T04:59:06.693Z,12.33
2019-05-06T05:01:36.545Z,14.07
2019-05-06T05:04:22.730Z,13.30
2019-05-06T05:06:37.932Z,15.00
2019-05-06T05:09:07.528Z,12.37
2019-05-06T05:11:38.783Z,13.03
2019-05-06T05:14:15.715Z,11.33
2019-05-06T05:17:02.358Z,16.27
2019-05-06T05:19:32.835Z,14.03
2019-05-06T05:22:08.913Z,13.20
2019-05-06T05:24:38.864Z,15.97
2019-05-06T05:27:08.740Z,14.77
2019-05-06T05:29:38.405Z,16.73
2019-05-06T05:32:07.923Z,13.63
2019-05-06T05:34:40.678Z,13.80
2019-05-06T05:37:09.021Z,13.77
2019-05-06T05:39:38.728Z,13.90
2019-05-06T05:42:19.158Z,14.23
2019-05-06T05:44:52.258Z,17.13
2019-05-06T05:47:22.150Z,11.43
2019-05-06T05:50:02.982Z,18.70
2019-05-06T05:52:32.961Z,13.70
2019-05-06T05:55:03.981Z,12.27
2019-05-06T05:57:33.973Z,14.63
2019-05-06T06:00:04.312Z,13.10
2019-05-06T06:02:34.101Z,14.40
2019-05-06T06:05:04.347Z,11.97
2019-05-06T06:07:34.477Z,14.23
2019-05-06T06:10:07.455Z,14.57
2019-05-06T06:12:37.421Z,15.23
2019-05-06T06:15:08.459Z,9.97
2019-05-06T06:17:40.240Z,17.13
2019-05-06T06:20:27.968Z,12.73
2019-05-06T06:22:59.148Z,16.43
2019-05-06T06:25:28.694Z,14.90
2019-05-06T06:27:58.732Z,12.37
2019-05-06T06:30:48.018Z,13.23
2019-05-06T06:33:17.640Z,13.70
2019-05-06T06:35:58.608Z,13.17
2019-05-06T06:38:45.873Z,16.57
2019-05-06T06:41:15.886Z,16.47
2019-05-06T06:43:47.242Z,13.10
2019-05-06T06:46:17.460Z,15.83
2019-05-06T06:48:46.990Z,13.27
2019-05-06T06:51:16.538Z,11.90
2019-05-06T06:53:46.076Z,12.13
2019-05-06T06:56:21.876Z,16.53
2019-05-06T06:59:04.571Z,12.00
2019-05-06T07:01:36.199Z,12.33
2019-05-06T07:04:11.216Z,14.50
2019-05-06T07:06:43.725Z,16.30
2019-05-06T07:09:13.388Z,12.83
2019-05-06T07:11:43.005Z,12.10
2019-05-06T07:14:13.741Z,13.17
2019-05-06T07:16:43.519Z,17.67
2019-05-06T07:19:14.699Z,17.90
2019-05-06T07:21:54.772Z,13.53
2019-05-06T07:24:24.348Z,10.23
2019-05-06T07:26:55.693Z,13.30
2019-05-06T07:29:26.723Z,12.23
2019-05-06T07:31:56.692Z,13.50
2019-05-06T07:34:26.332Z,10.40
2019-05-06T07:36:55.963Z,11.97
2019-05-06T07:39:25.498Z,11.07
2019-05-06T07:41:56.687Z,11.80
2019-05-06T07:44:44.208Z,12.00
2019-05-06T07:47:15.745Z,10.67
2019-05-06T07:49:45.422Z,11.63
2019-05-06T07:52:17.158Z,13.30
2019-05-06T07:54:46.227Z,12.40
2019-05-06T07:57:15.808Z,13.43
2019-05-06T07:59:45.597Z,10.03
2019-05-06T08:02:15.114Z,11.17
2019-05-06T08:04:44.684Z,10.20
2019-05-06T08:07:14.228Z,9.73
2019-05-06T08:09:44.031Z,13.30
2019-05-06T08:12:13.608Z,11.87
2019-05-06T08:14:43.469Z,11.07
2019-05-06T08:17:17.116Z,11.17
2019-05-06T08:19:46.992Z,11.83
2019-05-06T08:22:24.117Z,11.60
2019-05-06T08:24:53.673Z,11.07
2019-05-06T08:27:23.223Z,10.80
2019-05-06T08:29:52.895Z,7.67
2019-05-06T08:32:22.894Z,10.80
2019-05-06T08:34:52.546Z,8.40
2019-05-06T08:37:23.773Z,7.93
2019-05-06T08:39:53.535Z,9.23
2019-05-06T08:42:23.144Z,8.37
2019-05-06T08:44:53.114Z,10.03
2019-05-06T08:47:22.912Z,10.03
2019-05-06T08:49:56.843Z,11.83
2019-05-06T08:52:28.027Z,11.23
2019-05-06T08:55:04.257Z,8.73
2019-05-06T08:57:32.521Z,8.23
2019-05-06T09:00:03.481Z,8.57
2019-05-06T09:02:33.212Z,11.07
2019-05-06T09:05:03.153Z,7.93
2019-05-06T09:07:32.679Z,9.83
2019-05-06T09:10:02.630Z,10.73
2019-05-06T09:12:32.932Z,7.77
2019-05-06T09:15:03.532Z,9.90
2019-05-06T09:17:33.299Z,9.60
2019-05-06T09:20:02.848Z,7.63
2019-05-06T09:22:32.731Z,9.20
2019-05-06T09:25:02.550Z,5.83
2019-05-06T09:27:46.717Z,9.27
2019-05-06T09:30:23.004Z,6.93
2019-05-06T09:32:52.618Z,6.07
2019-05-06T09:35:22.514Z,8.57
2019-05-06T09:37:53.445Z,11.57
2019-05-06T09:40:23.079Z,8.83
2019-05-06T09:42:52.648Z,8.13
2019-05-06T09:45:22.805Z,8.63
2019-05-06T09:47:54.093Z,7.40
2019-05-06T09:50:45.465Z,7.57
2019-05-06T09:53:30.346Z,6.50
2019-05-06T09:56:03.321Z,8.27
2019-05-06T09:58:35.540Z,8.03
2019-05-06T10:01:05.792Z,7.60
2019-05-06T10:03:35.344Z,7.30
2019-05-06T10:06:04.884Z,6.37
2019-05-06T10:08:34.708Z,8.50
2019-05-06T10:11:04.295Z,6.30
2019-05-06T10:13:33.875Z,4.87
2019-05-06T10:16:03.434Z,8.40
2019-05-06T10:18:33.056Z,5.83
2019-05-06T10:21:02.690Z,7.00
2019-05-06T10:23:32.748Z,5.77
2019-05-06T10:26:04.587Z,9.30
2019-05-06T10:28:35.506Z,5.50
2019-05-06T10:31:07.721Z,7.43
2019-05-06T10:33:39.007Z,6.10
2019-05-06T10:36:08.796Z,7.73
2019-05-06T10:39:05.591Z,9.07
2019-05-06T10:41:39.334Z,7.27
2019-05-06T10:44:37.792Z,5.27
2019-05-06T10:47:07.430Z,7.80
2019-05-06T10:49:37.312Z,7.93
2019-05-06T10:52:14.293Z,6.37
2019-05-06T10:54:43.942Z,9.43
2019-05-06T10:57:18.015Z,8.03
2019-05-06T10:59:47.547Z,7.47
2019-05-06T11:02:18.743Z,7.30
2019-05-06T11:04:48.287Z,9.70
2019-05-06T11:07:31.079Z,11.63
2019-05-06T11:09:49.390Z,8.90
2019-05-06T11:12:19.012Z,8.77
2019-05-06T11:14:48.615Z,8.10
2019-05-06T11:17:18.210Z,7.00
2019-05-06T11:19:47.799Z,8.00
2019-05-06T11:22:21.065Z,7.97
2019-05-06T11:24:48.630Z,9.67
2019-05-06T11:27:28.870Z,7.53
2019-05-06T11:29:53.051Z,6.47
2019-05-06T11:32:24.089Z,7.47
2019-05-06T11:34:55.310Z,5.73
2019-05-06T11:37:49.792Z,7.77
2019-05-06T11:40:16.531Z,7.37
2019-05-06T11:42:44.498Z,8.73
2019-05-06T11:45:14.561Z,8.80
2019-05-06T11:47:44.150Z,8.90
2019-05-06T11:50:14.297Z,9.37
2019-05-06T11:52:43.935Z,9.53
2019-05-06T11:55:27.570Z,13.13
2019-05-06T11:57:46.873Z,11.53
2019-05-06T12:00:18.684Z,15.90
2019-05-06T12:02:49.071Z,12.37
2019-05-06T12:05:18.877Z,12.30
2019-05-06T12:08:01.826Z,9.27
2019-05-06T12:10:19.775Z,10.93
2019-05-06T12:12:49.317Z,10.60
2019-05-06T12:15:19.144Z,10.13
2019-05-06T12:17:48.731Z,11.20
2019-05-06T12:20:18.614Z,9.97
2019-05-06T12:22:48.176Z,12.00
2019-05-06T12:25:17.929Z,14.73
2019-05-06T12:27:47.492Z,13.43
2019-05-06T12:30:23.017Z,10.27
2019-05-06T12:32:58.468Z,10.57
2019-05-06T12:35:28.160Z,10.40
2019-05-06T12:37:59.338Z,11.50
2019-05-06T12:40:28.954Z,12.27
2019-05-06T12:43:16.410Z,11.47
2019-05-06T12:45:53.009Z,13.10
2019-05-06T12:48:23.651Z,15.70
2019-05-06T12:50:53.222Z,13.17
2019-05-06T12:53:23.266Z,13.90
2019-05-06T12:55:53.062Z,12.67
2019-05-06T12:58:23.372Z,15.90
2019-05-06T13:00:54.237Z,17.67
2019-05-06T13:03:24.151Z,18.00
2019-05-06T13:05:53.747Z,13.63
2019-05-06T13:08:28.769Z,16.50
2019-05-06T13:10:54.899Z,14.73
2019-05-06T13:13:24.421Z,15.40
2019-05-06T13:15:53.962Z,14.10
2019-05-06T13:18:23.706Z,15.27
2019-05-06T13:20:53.473Z,13.73
2019-05-06T13:23:35.086Z,14.07
2019-05-06T13:26:05.151Z,11.57
2019-05-06T13:28:38.137Z,13.30
2019-05-06T13:31:19.417Z,13.13
2019-05-06T13:33:47.703Z,12.87
2019-05-06T13:36:18.019Z,13.27
2019-05-06T13:38:48.639Z,11.17
2019-05-06T13:41:18.392Z,12.23
2019-05-06T13:43:50.617Z,14.03
2019-05-06T13:46:27.401Z,10.13
2019-05-06T13:49:02.815Z,14.00
2019-05-06T13:51:34.064Z,12.70
2019-05-06T13:54:03.813Z,17.80
2019-05-06T13:56:33.534Z,14.07
2019-05-06T13:59:05.120Z,9.87
2019-05-06T14:01:36.101Z,13.43
2019-05-06T14:04:05.831Z,9.10
2019-05-06T14:06:35.375Z,7.53
2019-05-06T14:09:27.192Z,8.90
2019-05-06T14:11:42.015Z,8.00
2019-05-06T14:14:12.576Z,6.90
2019-05-06T14:16:42.782Z,6.10
2019-05-06T14:19:15.555Z,4.77
2019-05-06T14:21:45.122Z,6.03
2019-05-06T14:24:17.394Z,7.60
2019-05-06T14:26:46.164Z,8.13
2019-05-06T14:29:17.484Z,7.20
2019-05-06T14:31:48.651Z,10.17
2019-05-06T14:34:18.233Z,7.53
2019-05-06T14:36:47.852Z,5.43
2019-05-06T14:39:19.006Z,7.20
2019-05-06T14:41:50.219Z,8.47
2019-05-06T14:44:19.774Z,9.07
2019-05-06T14:47:07.082Z,10.10
2019-05-06T14:49:36.745Z,8.10
2019-05-06T14:52:06.457Z,10.23
2019-05-06T14:54:38.710Z,9.23
2019-05-06T14:57:12.602Z,9.03
2019-05-06T14:59:42.382Z,8.00
2019-05-06T15:02:13.315Z,14.37
2019-05-06T15:04:43.699Z,9.03
2019-05-06T15:07:13.731Z,7.70
2019-05-06T15:09:55.829Z,9.43
2019-05-06T15:12:15.049Z,9.33
2019-05-06T15:14:44.685Z,14.17
2019-05-06T15:17:16.797Z,10.07
2019-05-06T15:19:46.361Z,12.13
2019-05-06T15:22:15.936Z,9.80
2019-05-06T15:24:46.764Z,9.13
2019-05-06T15:27:16.325Z,10.67
2019-05-06T15:29:48.849Z,12.47
2019-05-06T15:32:23.171Z,12.27
2019-05-06T15:34:56.183Z,12.17
2019-05-06T15:37:45.816Z,11.83
2019-05-06T15:40:30.742Z,13.57
2019-05-06T15:42:48.135Z,14.13
2019-05-06T15:45:18.294Z,10.77
2019-05-06T15:47:47.875Z,9.30
2019-05-06T15:50:17.765Z,9.93
2019-05-06T15:52:47.312Z,11.10
2019-05-06T15:55:18.051Z,9.30
2019-05-06T15:57:47.628Z,11.40
2019-05-06T16:00:22.596Z,13.13
2019-05-06T16:02:53.016Z,15.83
2019-05-06T16:05:26.545Z,13.40
2019-05-06T16:07:54.633Z,12.67
2019-05-06T16:10:24.362Z,12.10
2019-05-06T16:12:54.878Z,8.43
2019-05-06T16:15:25.069Z,12.77
2019-05-06T16:17:54.923Z,10.43
2019-05-06T16:20:24.540Z,12.67
2019-05-06T16:23:07.773Z,12.80
2019-05-06T16:25:37.421Z,11.67
2019-05-06T16:28:06.993Z,11.33
2019-05-06T16:30:36.629Z,14.30
2019-05-06T16:33:06.231Z,12.93
2019-05-06T16:35:35.898Z,10.07
2019-05-06T16:38:05.673Z,9.00
2019-05-06T16:40:35.258Z,11.37
2019-05-06T16:43:04.802Z,12.83
2019-05-06T16:45:34.381Z,13.57
2019-05-06T16:48:03.957Z,14.93
2019-05-06T16:50:35.038Z,12.77
2019-05-06T16:53:04.574Z,13.40
2019-05-06T16:55:54.973Z,13.27
2019-05-06T16:58:27.782Z,13.93
2019-05-06T17:00:57.597Z,10.63
2019-05-06T17:03:28.852Z,9.50
2019-05-06T17:06:18.208Z,10.13
2019-05-06T17:08:47.892Z,10.67
2019-05-06T17:11:27.984Z,10.60
2019-05-06T17:13:49.107Z,11.20
2019-05-06T17:16:19.216Z,10.10
2019-05-06T17:18:48.771Z,9.57
2019-05-06T17:21:18.545Z,10.23
2019-05-06T17:23:48.126Z,11.10
2019-05-06T17:26:17.759Z,9.83
2019-05-06T17:28:54.861Z,10.03
2019-05-06T17:31:26.819Z,6.33
2019-05-06T17:34:06.801Z,7.53
2019-05-06T17:36:38.030Z,5.70
2019-05-06T17:39:13.261Z,7.23
2019-05-06T17:41:48.539Z,8.50
2019-05-06T17:44:14.262Z,8.17
2019-05-06T17:46:45.773Z,9.50
2019-05-06T17:49:23.615Z,7.97
2019-05-06T17:52:10.105Z,7.83
2019-05-06T17:54:39.709Z,5.70
2019-05-06T17:57:09.356Z,6.37
2019-05-06T17:59:39.089Z,5.63
2019-05-06T18:02:11.541Z,6.53
2019-05-06T18:04:43.102Z,7.87
2019-05-06T18:07:12.989Z,6.63
2019-05-06T18:09:42.844Z,5.53
2019-05-06T18:12:12.611Z,7.70
2019-05-06T18:14:43.544Z,7.50
2019-05-06T18:17:13.540Z,7.13
2019-05-06T18:19:43.527Z,8.40
2019-05-06T18:22:13.318Z,5.03
2019-05-06T18:24:42.844Z,5.93
2019-05-06T18:27:13.579Z,5.20
2019-05-06T18:29:43.111Z,5.47
2019-05-06T18:32:12.811Z,6.47
2019-05-06T18:34:42.360Z,4.30
2019-05-06T18:37:12.698Z,5.10
2019-05-06T18:39:42.763Z,5.50
2019-05-06T18:42:19.136Z,7.20
2019-05-06T18:44:43.877Z,4.47
2019-05-06T18:47:13.442Z,7.43
2019-05-06T18:49:42.995Z,7.73
2019-05-06T18:52:13.416Z,6.93
2019-05-06T18:54:43.435Z,8.07
2019-05-06T18:57:14.020Z,7.27
2019-05-06T18:59:43.756Z,10.20
2019-05-06T19:02:13.561Z,6.93
2019-05-06T19:04:53.569Z,5.90
2019-05-06T19:07:23.127Z,7.27
2019-05-06T19:09:54.327Z,6.97
2019-05-06T19:12:31.686Z,10.53
2019-05-06T19:14:55.201Z,7.47
2019-05-06T19:17:24.753Z,6.20
2019-05-06T19:19:54.295Z,5.77
2019-05-06T19:22:24.187Z,6.77
2019-05-06T19:24:53.753Z,7.77
2019-05-06T19:27:24.983Z,6.63
2019-05-06T19:29:54.868Z,7.37
2019-05-06T19:32:25.430Z,7.00
2019-05-06T19:34:54.990Z,8.67
2019-05-06T19:37:24.543Z,9.07
2019-05-06T19:39:54.063Z,8.30
2019-05-06T19:42:23.695Z,8.77
2019-05-06T19:44:53.283Z,9.60
2019-05-06T19:47:22.923Z,6.83
2019-05-06T19:49:53.345Z,9.07
2019-05-06T19:52:25.011Z,7.97
2019-05-06T19:54:54.303Z,8.90
2019-05-06T19:57:23.857Z,7.77
2019-05-06T19:59:53.566Z,7.60
2019-05-06T20:02:25.659Z,10.93
2019-05-06T20:04:57.046Z,9.80
2019-05-06T20:07:30.423Z,10.10
2019-05-06T20:10:08.288Z,10.00
2019-05-06T20:12:47.614Z,10.60
2019-05-06T20:15:35.216Z,9.20
2019-05-06T20:18:06.020Z,14.80
2019-05-06T20:20:36.458Z,9.97
2019-05-06T20:23:07.329Z,11.00
2019-05-06T20:25:37.501Z,9.30
2019-05-06T20:28:07.660Z,12.00
2019-05-06T20:30:37.967Z,11.00
2019-05-06T20:33:08.927Z,13.50
2019-05-06T20:35:38.626Z,10.20
2019-05-06T20:38:09.033Z,10.13
2019-05-06T20:40:39.275Z,11.93
2019-05-06T20:43:19.314Z,10.27
2019-05-06T20:45:42.530Z,12.10
2019-05-06T20:48:13.040Z,11.57
2019-05-06T20:50:43.214Z,15.50
2019-05-06T20:53:13.657Z,15.03
2019-05-06T20:55:44.382Z,12.80
2019-05-06T20:58:14.477Z,11.00
2019-05-06T21:00:44.708Z,12.40
2019-05-06T21:03:15.463Z,12.93
2019-05-06T21:05:45.441Z,11.80
2019-05-06T21:08:16.486Z,13.70
2019-05-06T21:10:49.734Z,13.43
2019-05-06T21:13:29.562Z,12.27
2019-05-06T21:15:50.417Z,12.17
2019-05-06T21:18:20.207Z,14.63
2019-05-06T21:20:50.378Z,16.17
2019-05-06T21:23:22.692Z,13.73
2019-05-06T21:25:52.664Z,13.03
2019-05-06T21:28:23.740Z,14.13
2019-05-06T21:30:53.673Z,15.27
2019-05-06T21:33:23.507Z,14.00
2019-05-06T21:35:54.663Z,14.30
2019-05-06T21:38:24.602Z,14.70
2019-05-06T21:40:54.295Z,14.33
2019-05-06T21:43:24.401Z,15.20
2019-05-06T21:45:54.276Z,13.07
2019-05-06T21:48:24.135Z,13.97
2019-05-06T21:50:54.401Z,15.87
2019-05-06T21:53:24.465Z,14.10
2019-05-06T21:55:54.827Z,15.70
2019-05-06T21:58:25.304Z,14.47
2019-05-06T22:00:57.279Z,16.73
2019-05-06T22:03:27.034Z,13.33
2019-05-06T22:05:56.577Z,17.50
2019-05-06T22:08:26.352Z,16.07
2019-05-06T22:11:00.092Z,13.23
2019-05-06T22:13:28.840Z,14.93
2019-05-06T22:16:02.305Z,12.73
2019-05-06T22:18:31.641Z,13.40
2019-05-06T22:21:03.063Z,15.20
2019-05-06T22:23:52.586Z,14.37
2019-05-06T22:26:23.463Z,13.80
2019-05-06T22:28:53.926Z,14.53
2019-05-06T22:31:24.669Z,14.83
2019-05-06T22:33:54.741Z,15.00
2019-05-06T22:36:24.640Z,13.80
2019-05-06T22:38:54.196Z,18.40
2019-05-06T22:41:25.484Z,15.57
2019-05-06T22:43:55.212Z,15.20
2019-05-06T22:46:24.970Z,16.03
2019-05-06T22:48:54.870Z,16.43
2019-05-06T22:51:24.824Z,15.23
2019-05-06T22:53:54.372Z,16.67
2019-05-06T22:56:24.044Z,16.20
2019-05-06T22:58:53.604Z,17.70
2019-05-06T23:01:43.087Z,15.53
2019-05-06T23:04:14.054Z,15.47
2019-05-06T23:06:43.606Z,15.63
2019-05-06T23:09:13.136Z,17.40
2019-05-06T23:11:42.758Z,18.37
2019-05-06T23:14:16.741Z,16.20
2019-05-06T23:16:43.618Z,16.07
2019-05-06T23:19:13.182Z,17.60
2019-05-06T23:21:43.170Z,18.63
2019-05-06T23:24:13.267Z,17.70
2019-05-06T23:26:42.873Z,15.23
2019-05-06T23:29:13.032Z,15.30
2019-05-06T23:31:43.217Z,16.73
2019-05-06T23:34:12.797Z,15.30
2019-05-06T23:37:02.801Z,16.50
2019-05-06T23:40:29.323Z,17.47
2019-05-06T23:43:53.752Z,16.63
2019-05-06T23:47:18.315Z,17.60
2019-05-06T23:50:42.922Z,15.67
2019-05-06T23:54:07.207Z,19.20
2019-05-06T23:56:45.719Z,13.73
2019-05-06T23:59:17.879Z,16.30
